Date,TemperatureHighF,TemperatureAvgF,TemperatureLowF,DewpointHighF,DewpointAvgF,DewpointLowF,HumidityHigh,HumidityAvg,HumidityLow,PressureMaxIn,PressureMinIn,WindSpeedMaxMPH,WindSpeedAvgMPH,GustSpeedMaxMPH,PrecipitationSumIn
2013-1-1,51,49,40,51,47,39,98,94,75,30.16,30.02,15,2,0,0.02
2013-1-2,40,36,34,39,35,34,97,95,93,30.30,30.13,9,4,0,0.01
2013-1-3,41,35,30,34,31,27,97,84,62,30.49,30.26,10,3,0,0.01
2013-1-4,46,34,26,30,26,24,96,75,47,30.55,30.45,8,2,0,0.37
2013-1-5,48,38,27,37,30,25,95,77,46,30.51,30.37,6,1,0,0.32
2013-1-6,49,41,37,40,37,33,97,87,63,30.40,30.29,9,2,0,0.03
2013-1-7,54,40,29,34,31,27,93,74,42,30.48,30.37,7,2,0,0.05
2013-1-8,57,46,35,46,39,30,86,76,63,30.45,30.33,8,3,0,0.03
2013-1-9,58,53,49,55,51,45,96,92,83,30.46,30.37,14,2,0,0.01
2013-1-10,65,60,56,62,58,54,97,93,88,30.43,30.12,14,4,0,0.01
2013-1-11,65,64,62,64,62,60,98,94,85,30.20,30.13,12,4,0,0.01
2013-1-12,70,66,64,66,63,59,98,90,81,30.16,30.02,11,3,0,0.00
2013-1-13,69,62,43,64,60,42,96,91,83,30.16,29.97,16,6,0,0.00
2013-1-14,42,39,35,42,39,34,97,97,95,30.32,30.16,16,4,0,0.00
2013-1-15,47,42,37,47,41,37,98,98,97,30.22,30.02,7,2,0,0.00
2013-1-16,45,40,38,45,40,37,98,97,96,30.16,30.00,10,3,0,0.00
2013-1-17,42,38,32,41,36,31,98,93,83,30.47,29.93,22,7,0,0.01
2013-1-18,49,37,28,36,31,27,97,81,47,30.67,30.47,11,1,0,0.09
2013-1-19,55,41,30,34,31,28,93,70,42,30.52,30.32,7,1,0,0.16
2013-1-20,59,44,31,40,35,30,94,74,47,30.34,30.23,6,1,0,0.01
2013-1-21,46,38,31,37,27,18,97,68,40,30.34,30.20,12,3,0,0.02
2013-1-22,40,32,27,26,18,15,81,57,42,30.48,30.34,10,2,0,0.40
2013-1-23,54,44,32,40,33,24,82,65,51,30.48,30.29,13,4,0,0.03
2013-1-24,47,42,35,42,29,15,84,62,40,30.43,30.27,12,3,0,0.04
2013-1-25,50,42,36,44,30,-100,97,69,40,30.37,30.18,9,-19,0,0.00
2013-1-26,52,43,36,41,35,30,97,76,46,30.41,30.26,9,2,0,0.01
2013-1-27,51,47,42,40,37,34,76,69,64,30.47,30.38,11,3,0,0.00
2013-1-28,64,53,45,55,46,35,93,79,63,30.42,30.27,11,2,0,0.00
2013-1-29,68,59,50,64,57,49,97,92,85,30.27,29.87,12,2,0,0.00
2013-1-30,70,55,36,65,51,28,97,88,71,30.00,29.63,27,10,0,0.01
2013-1-31,48,38,30,29,27,25,84,65,44,30.26,30.01,16,7,0,0.01